Time;durP1;ratioP1;P1;durP2;ratioP2;P2;SDS_P1;SDS_P2;PMS_P1;PMS_P2;Temp;Humidity;BMP_temperature;BMP_pressure;BME280_temperature;BME280_humidity;BME280_pressure;Samples;Min_cycle;Max_cycle;Signal;HPM_P1;HPM_P2
2022/06/11 00:00:48;;;;;;;8.30;3.20;;;;;;;;;;5071129;28;20377;-76
2022/06/11 00:03:14;;;;;;;10.52;3.40;;;;;;;;;;5073785;28;20039;-76
2022/06/11 00:05:40;;;;;;;11.23;3.80;;;;;;;;;;5079888;28;20043;-76
2022/06/11 00:08:06;;;;;;;11.38;3.50;;;;;;;;;;5079484;28;20547;-76
2022/06/11 00:10:32;;;;;;;10.77;3.75;;;;;;;;;;5092647;28;20447;-76
2022/06/11 00:12:58;;;;;;;8.10;3.40;;;;;;;;;;5083235;28;20040;-76
2022/06/11 00:15:24;;;;;;;12.38;3.50;;;;;;;;;;5064074;28;20118;-75
2022/06/11 00:17:52;;;;;;;11.13;3.50;;;;;;;;;;5086571;28;20046;-76
2022/06/11 00:20:19;;;;;;;11.68;3.47;;;;;;;;;;5078533;28;20400;-76
2022/06/11 00:22:45;;;;;;;8.48;3.22;;;;;;;;;;5073288;28;20119;-76
2022/06/11 00:25:11;;;;;;;11.43;3.30;;;;;;;;;;5090261;28;20546;-76
2022/06/11 00:27:38;;;;;;;8.98;3.20;;;;;;;;;;5061423;28;20053;-75
2022/06/11 00:30:05;;;;;;;9.63;3.15;;;;;;;;;;5089727;28;20048;-76
2022/06/11 00:32:31;;;;;;;8.07;3.50;;;;;;;;;;5065325;28;20399;-76
2022/06/11 00:35:01;;;;;;;12.40;3.83;;;;;;;;;;5092594;28;20096;-76
2022/06/11 00:37:27;;;;;;;6.30;3.20;;;;;;;;;;5090732;28;20126;-76
2022/06/11 00:39:53;;;;;;;13.95;3.42;;;;;;;;;;5090742;28;20040;-76
2022/06/11 00:42:22;;;;;;;7.80;3.22;;;;;;;;;;5067717;28;20048;-76
2022/06/11 00:44:47;;;;;;;11.40;3.90;;;;;;;;;;5072047;28;20062;-75
2022/06/11 00:47:21;;;;;;;9.40;3.45;;;;;;;;;;5095943;28;20474;-76
2022/06/11 00:49:55;;;;;;;8.18;3.30;;;;;;;;;;5066270;28;20174;-76
2022/06/11 00:52:36;;;;;;;9.73;3.22;;;;;;;;;;5055499;28;20045;-75
2022/06/11 00:55:05;;;;;;;9.27;3.15;;;;;;;;;;5088098;28;20078;-76
2022/06/11 00:57:33;;;;;;;11.73;3.40;;;;;;;;;;5075490;28;20048;-76
2022/06/11 01:00:02;;;;;;;9.43;3.08;;;;;;;;;;5064011;28;20036;-75
2022/06/11 01:02:28;;;;;;;10.30;3.65;;;;;;;;;;5076714;28;20096;-76
2022/06/11 01:04:55;;;;;;;8.02;3.00;;;;;;;;;;5069325;28;20051;-76
2022/06/11 01:07:21;;;;;;;12.27;3.70;;;;;;;;;;5062463;28;20043;-76
2022/06/11 01:09:57;;;;;;;10.25;3.42;;;;;;;;;;5074774;28;20398;-76
2022/06/11 01:12:31;;;;;;;10.68;3.65;;;;;;;;;;5090308;28;20488;-76
2022/06/11 01:15:06;;;;;;;9.13;3.25;;;;;;;;;;5091932;28;20052;-76
2022/06/11 01:17:40;;;;;;;9.93;3.72;;;;;;;;;;5077420;28;20059;-76
2022/06/11 01:20:10;;;;;;;9.70;3.58;;;;;;;;;;5081294;28;20523;-76
2022/06/11 01:22:37;;;;;;;9.25;3.60;;;;;;;;;;5083726;28;20503;-76
2022/06/11 01:25:07;;;;;;;13.07;3.88;;;;;;;;;;5063738;28;20170;-76
2022/06/11 01:27:36;;;;;;;15.77;4.60;;;;;;;;;;5081108;28;20048;-76
2022/06/11 01:30:02;;;;;;;11.18;3.83;;;;;;;;;;5081125;28;20127;-76
2022/06/11 01:32:35;;;;;;;11.02;4.30;;;;;;;;;;5080783;28;20052;-75
2022/06/11 01:35:22;;;;;;;13.37;4.30;;;;;;;;;;5069154;28;20040;-75
2022/06/11 01:37:53;;;;;;;10.93;3.75;;;;;;;;;;5098347;28;20059;-76
2022/06/11 01:40:35;;;;;;;11.82;3.75;;;;;;;;;;5089191;28;20040;-76
2022/06/11 01:43:12;;;;;;;11.32;4.03;;;;;;;;;;5085861;28;20548;-75
2022/06/11 01:45:39;;;;;;;12.93;4.18;;;;;;;;;;5082635;28;20083;-75
2022/06/11 01:48:07;;;;;;;10.38;4.53;;;;;;;;;;5070571;28;20044;-75
2022/06/11 01:50:36;;;;;;;12.85;4.07;;;;;;;;;;5082576;28;20032;-76
2022/06/11 01:53:02;;;;;;;15.48;4.32;;;;;;;;;;5060877;28;20055;-76
2022/06/11 01:55:41;;;;;;;11.38;3.92;;;;;;;;;;5090415;28;20043;-76
2022/06/11 01:58:31;;;;;;;10.30;4.10;;;;;;;;;;5059727;28;20458;-75
2022/06/11 02:01:03;;;;;;;11.50;3.97;;;;;;;;;;5088132;28;20051;-75
2022/06/11 02:03:39;;;;;;;12.25;4.40;;;;;;;;;;5074724;28;20032;-76
2022/06/11 02:06:05;;;;;;;11.20;3.80;;;;;;;;;;5089706;28;20467;-76
2022/06/11 02:08:50;;;;;;;16.02;4.53;;;;;;;;;;5072508;28;20044;-76
2022/06/11 02:11:21;;;;;;;9.93;3.80;;;;;;;;;;5072361;28;20052;-76
2022/06/11 02:13:55;;;;;;;8.45;4.10;;;;;;;;;;5077306;28;20126;-76
2022/06/11 02:16:27;;;;;;;12.57;4.15;;;;;;;;;;5080721;28;20036;-77
2022/06/11 02:18:58;;;;;;;9.88;3.80;;;;;;;;;;5071300;28;20475;-76
2022/06/11 02:21:26;;;;;;;8.60;3.75;;;;;;;;;;5077592;28;20499;-76
2022/06/11 02:23:58;;;;;;;13.93;3.92;;;;;;;;;;5063328;28;20052;-76
2022/06/11 02:26:29;;;;;;;13.85;4.25;;;;;;;;;;5081204;28;20082;-75
2022/06/11 02:28:56;;;;;;;12.90;4.07;;;;;;;;;;5058752;28;20064;-75
2022/06/11 02:31:25;;;;;;;12.95;4.10;;;;;;;;;;5087731;28;20129;-76
2022/06/11 02:33:54;;;;;;;12.60;4.60;;;;;;;;;;5076258;28;20115;-76
2022/06/11 02:36:20;;;;;;;11.65;4.10;;;;;;;;;;5080986;28;20043;-76
2022/06/11 02:38:47;;;;;;;9.75;4.10;;;;;;;;;;5063485;28;20102;-75
2022/06/11 02:41:21;;;;;;;15.07;4.28;;;;;;;;;;5078322;28;20040;-76
2022/06/11 02:43:49;;;;;;;10.85;4.43;;;;;;;;;;5064922;28;20094;-76
2022/06/11 02:49:04;;;;;;;12.27;4.50;;;;;;;;;;5095665;28;20522;-76
2022/06/11 02:51:31;;;;;;;12.63;4.65;;;;;;;;;;5087545;28;20044;-76
2022/06/11 02:53:57;;;;;;;11.52;4.13;;;;;;;;;;5082327;28;20055;-76
2022/06/11 02:56:24;;;;;;;12.95;4.63;;;;;;;;;;5085393;28;20121;-75
2022/06/11 02:58:50;;;;;;;13.80;4.25;;;;;;;;;;5088627;28;20101;-75
2022/06/11 03:01:16;;;;;;;16.33;4.60;;;;;;;;;;5077713;28;20495;-75
2022/06/11 03:03:42;;;;;;;16.08;4.63;;;;;;;;;;5098005;28;20044;-75
2022/06/11 03:06:09;;;;;;;14.38;5.03;;;;;;;;;;5078041;28;20112;-76
2022/06/11 03:08:36;;;;;;;12.40;4.72;;;;;;;;;;5078583;28;20060;-76
2022/06/11 03:11:02;;;;;;;13.20;4.65;;;;;;;;;;5092753;28;20112;-76
2022/06/11 03:13:30;;;;;;;16.30;4.85;;;;;;;;;;5076949;28;20452;-76
2022/06/11 03:15:56;;;;;;;14.80;5.00;;;;;;;;;;5088679;28;20080;-75
2022/06/11 03:18:23;;;;;;;15.63;5.10;;;;;;;;;;5091131;28;20355;-75
2022/06/11 03:20:50;;;;;;;13.95;5.38;;;;;;;;;;5092352;28;20048;-76
2022/06/11 03:23:17;;;;;;;16.77;5.22;;;;;;;;;;5087762;28;20044;-76
2022/06/11 03:25:43;;;;;;;14.60;5.20;;;;;;;;;;5082336;28;20056;-76
2022/06/11 03:28:19;;;;;;;13.85;5.00;;;;;;;;;;5083667;28;20084;-76
2022/06/11 03:30:47;;;;;;;16.27;5.20;;;;;;;;;;5073728;28;20040;-76
2022/06/11 03:33:14;;;;;;;16.65;5.18;;;;;;;;;;5085402;28;20083;-76
2022/06/11 03:35:41;;;;;;;15.57;5.20;;;;;;;;;;5081748;28;20128;-76
2022/06/11 03:38:08;;;;;;;15.65;5.60;;;;;;;;;;5082506;28;20048;-76
2022/06/11 03:40:34;;;;;;;14.25;5.30;;;;;;;;;;5074357;28;20056;-76
2022/06/11 03:43:00;;;;;;;16.23;5.63;;;;;;;;;;5084887;28;20372;-76
2022/06/11 03:45:27;;;;;;;17.52;5.18;;;;;;;;;;5087882;28;20048;-75
2022/06/11 03:47:53;;;;;;;17.42;5.35;;;;;;;;;;5092930;28;20047;-76
2022/06/11 03:50:22;;;;;;;17.85;5.85;;;;;;;;;;5086721;28;20052;-76
2022/06/11 03:52:48;;;;;;;11.40;5.10;;;;;;;;;;5076112;28;20050;-76
2022/06/11 03:55:14;;;;;;;17.92;5.30;;;;;;;;;;5092102;28;20130;-75
2022/06/11 03:57:40;;;;;;;15.38;5.35;;;;;;;;;;5056486;28;20094;-76
2022/06/11 04:00:08;;;;;;;17.73;5.68;;;;;;;;;;5061414;28;20048;-75
2022/06/11 04:02:37;;;;;;;16.33;6.05;;;;;;;;;;5088406;28;20111;-76
2022/06/11 04:05:04;;;;;;;16.42;5.55;;;;;;;;;;5086789;28;20090;-75
2022/06/11 04:07:31;;;;;;;19.65;6.07;;;;;;;;;;5077057;28;20040;-76
2022/06/11 04:10:00;;;;;;;16.10;5.68;;;;;;;;;;5066675;28;20035;-76
2022/06/11 04:12:26;;;;;;;18.23;5.78;;;;;;;;;;5097399;28;20092;-76
2022/06/11 04:14:52;;;;;;;12.73;5.15;;;;;;;;;;5105690;28;20065;-76
2022/06/11 04:17:22;;;;;;;15.65;5.43;;;;;;;;;;5093177;28;20051;-76
2022/06/11 04:19:49;;;;;;;18.42;5.57;;;;;;;;;;5073526;28;20044;-76
2022/06/11 04:22:15;;;;;;;16.83;6.32;;;;;;;;;;5091023;28;20085;-76
2022/06/11 04:24:42;;;;;;;21.35;6.05;;;;;;;;;;5075298;28;20123;-76
2022/06/11 04:27:09;;;;;;;19.33;6.05;;;;;;;;;;5094249;28;20048;-76
2022/06/11 04:29:36;;;;;;;15.60;5.93;;;;;;;;;;5077887;28;20411;-76
2022/06/11 04:32:04;;;;;;;21.05;5.72;;;;;;;;;;5069893;28;20048;-76
2022/06/11 04:34:30;;;;;;;16.65;5.63;;;;;;;;;;5076135;28;20044;-75
2022/06/11 04:36:57;;;;;;;19.80;6.25;;;;;;;;;;5068286;28;20040;-76
2022/06/11 04:39:25;;;;;;;17.02;6.43;;;;;;;;;;5061340;28;20044;-76
2022/06/11 04:41:51;;;;;;;15.27;5.43;;;;;;;;;;5076429;28;20045;-76
2022/06/11 04:44:18;;;;;;;18.05;6.07;;;;;;;;;;5069665;28;20163;-76
2022/06/11 04:46:44;;;;;;;20.13;6.40;;;;;;;;;;5095121;28;20067;-76
2022/06/11 04:49:11;;;;;;;16.02;5.50;;;;;;;;;;5057692;28;20059;-76
2022/06/11 04:51:38;;;;;;;20.25;5.80;;;;;;;;;;5088567;28;20421;-75
2022/06/11 04:54:04;;;;;;;21.95;6.18;;;;;;;;;;5071244;28;20036;-76
2022/06/11 04:56:30;;;;;;;21.60;6.05;;;;;;;;;;5090144;28;20055;-76
2022/06/11 04:58:56;;;;;;;20.70;6.30;;;;;;;;;;5091607;28;20078;-76
2022/06/11 05:01:22;;;;;;;18.27;6.00;;;;;;;;;;5091076;28;20150;-76
2022/06/11 05:03:48;;;;;;;23.35;5.75;;;;;;;;;;5076106;28;20048;-76
2022/06/11 05:06:19;;;;;;;20.10;5.85;;;;;;;;;;5072826;28;20044;-76
2022/06/11 05:08:45;;;;;;;17.50;6.00;;;;;;;;;;5071804;28;20476;-77
2022/06/11 05:11:11;;;;;;;16.58;5.90;;;;;;;;;;5079963;28;20078;-76
2022/06/11 05:13:38;;;;;;;18.30;5.88;;;;;;;;;;5106405;28;20075;-76
2022/06/11 05:16:04;;;;;;;16.13;5.35;;;;;;;;;;5092461;28;20115;-76
2022/06/11 05:18:31;;;;;;;17.85;6.00;;;;;;;;;;5067234;28;20037;-76
2022/06/11 05:20:57;;;;;;;17.80;5.45;;;;;;;;;;5068347;28;20132;-77
2022/06/11 05:23:23;;;;;;;15.68;5.43;;;;;;;;;;5104169;28;20508;-76
2022/06/11 05:25:49;;;;;;;17.00;5.07;;;;;;;;;;5096046;28;20050;-76
2022/06/11 05:28:20;;;;;;;15.88;5.07;;;;;;;;;;5074008;28;20399;-76
2022/06/11 05:30:47;;;;;;;15.10;5.28;;;;;;;;;;5078051;28;20047;-76
2022/06/11 05:33:13;;;;;;;22.65;6.10;;;;;;;;;;5086189;28;20093;-76
2022/06/11 05:35:43;;;;;;;17.55;5.03;;;;;;;;;;5062150;28;20110;-76
2022/06/11 05:38:11;;;;;;;16.52;5.35;;;;;;;;;;5073187;28;20434;-76
2022/06/11 05:40:40;;;;;;;17.60;5.15;;;;;;;;;;5097448;28;20470;-76
2022/06/11 05:43:06;;;;;;;15.90;5.57;;;;;;;;;;5078420;28;20037;-75
2022/06/11 05:45:35;;;;;;;16.08;5.35;;;;;;;;;;5074178;28;20048;-76
2022/06/11 05:48:02;;;;;;;13.02;4.68;;;;;;;;;;5092580;28;20049;-76
2022/06/11 05:50:29;;;;;;;17.08;4.93;;;;;;;;;;5090484;28;20545;-76
2022/06/11 05:52:57;;;;;;;15.82;5.70;;;;;;;;;;5075451;28;20170;-76
2022/06/11 05:55:26;;;;;;;15.63;4.65;;;;;;;;;;5089406;28;20036;-76
2022/06/11 05:57:52;;;;;;;16.00;5.30;;;;;;;;;;5082645;28;20042;-76
2022/06/11 06:00:20;;;;;;;16.75;5.78;;;;;;;;;;5074537;28;20090;-77
2022/06/11 06:02:47;;;;;;;16.40;5.13;;;;;;;;;;5062628;28;20047;-76
2022/06/11 06:05:14;;;;;;;15.25;4.60;;;;;;;;;;5057352;28;20052;-76
2022/06/11 06:07:41;;;;;;;16.05;5.25;;;;;;;;;;5072616;28;20449;-76
2022/06/11 06:10:07;;;;;;;13.80;4.68;;;;;;;;;;5076253;28;20049;-76
2022/06/11 06:12:34;;;;;;;15.60;4.57;;;;;;;;;;5059372;28;20048;-76
2022/06/11 06:15:09;;;;;;;15.15;4.93;;;;;;;;;;5071047;28;20075;-76
2022/06/11 06:17:35;;;;;;;12.60;4.22;;;;;;;;;;5094616;28;20101;-77
2022/06/11 06:20:09;;;;;;;18.43;4.73;;;;;;;;;;5088081;28;20032;-76
2022/06/11 06:22:35;;;;;;;11.50;4.15;;;;;;;;;;5068857;28;20306;-77
2022/06/11 06:25:01;;;;;;;13.60;5.00;;;;;;;;;;5088360;28;20051;-76
2022/06/11 06:27:27;;;;;;;14.63;4.47;;;;;;;;;;5091753;28;20076;-76
2022/06/11 06:29:53;;;;;;;19.40;5.57;;;;;;;;;;5071515;28;20052;-76
2022/06/11 06:32:19;;;;;;;14.77;4.85;;;;;;;;;;5084843;28;20369;-76
2022/06/11 06:34:46;;;;;;;16.58;4.57;;;;;;;;;;5069706;28;20123;-76
2022/06/11 06:37:12;;;;;;;9.15;3.85;;;;;;;;;;5084369;28;20072;-76
2022/06/11 06:39:38;;;;;;;12.75;4.20;;;;;;;;;;5068448;28;20045;-76
2022/06/11 06:42:06;;;;;;;13.80;4.00;;;;;;;;;;5085885;28;20048;-76
2022/06/11 06:44:32;;;;;;;10.73;4.20;;;;;;;;;;5072435;28;20056;-75
2022/06/11 06:46:58;;;;;;;9.70;3.80;;;;;;;;;;5089610;28;20090;-76
2022/06/11 06:49:24;;;;;;;14.40;3.80;;;;;;;;;;5088639;28;20163;-75
2022/06/11 06:51:50;;;;;;;16.13;4.68;;;;;;;;;;5088541;28;20047;-76
2022/06/11 06:54:16;;;;;;;10.38;3.92;;;;;;;;;;5070570;28;20202;-75
2022/06/11 06:56:44;;;;;;;12.85;4.22;;;;;;;;;;5089665;28;20052;-76
2022/06/11 06:59:10;;;;;;;13.80;4.25;;;;;;;;;;5089945;28;20582;-75
2022/06/11 07:01:36;;;;;;;12.57;4.20;;;;;;;;;;5071621;28;20044;-76
2022/06/11 07:04:03;;;;;;;11.82;4.03;;;;;;;;;;5078635;28;20543;-76
2022/06/11 07:06:30;;;;;;;11.75;4.05;;;;;;;;;;5093436;28;20036;-76
2022/06/11 07:08:56;;;;;;;17.23;4.57;;;;;;;;;;5082712;28;20070;-75
2022/06/11 07:11:22;;;;;;;14.43;3.78;;;;;;;;;;5079406;28;20445;-76
2022/06/11 07:13:49;;;;;;;11.98;4.28;;;;;;;;;;5057962;28;20041;-75
2022/06/11 07:16:17;;;;;;;16.45;4.63;;;;;;;;;;5075949;28;20092;-76
2022/06/11 07:18:55;;;;;;;12.43;4.20;;;;;;;;;;5098185;28;20365;-76
2022/06/11 07:21:23;;;;;;;14.10;4.85;;;;;;;;;;5085807;28;20047;-76
2022/06/11 07:23:54;;;;;;;11.07;3.90;;;;;;;;;;5093330;28;20130;-76
2022/06/11 07:26:39;;;;;;;17.20;4.93;;;;;;;;;;5065727;28;20048;-76
2022/06/11 07:29:09;;;;;;;11.98;4.35;;;;;;;;;;5098599;28;20439;-76
2022/06/11 07:31:35;;;;;;;12.13;4.05;;;;;;;;;;5075555;28;20477;-76
2022/06/11 07:34:01;;;;;;;13.07;4.03;;;;;;;;;;5078942;28;20036;-76
2022/06/11 07:36:28;;;;;;;13.95;4.57;;;;;;;;;;5070159;28;20051;-76
2022/06/11 07:38:54;;;;;;;12.10;4.05;;;;;;;;;;5075090;28;20048;-76
2022/06/11 07:41:20;;;;;;;13.65;4.53;;;;;;;;;;5075079;28;20045;-76
2022/06/11 07:43:46;;;;;;;12.90;4.47;;;;;;;;;;5070174;28;20051;-76
2022/06/11 07:46:12;;;;;;;15.32;3.90;;;;;;;;;;5074927;28;20175;-76
2022/06/11 07:48:38;;;;;;;14.05;4.22;;;;;;;;;;5082343;28;20048;-76
2022/06/11 07:51:04;;;;;;;13.73;4.32;;;;;;;;;;5086604;28;20052;-76
2022/06/11 07:53:31;;;;;;;13.00;4.40;;;;;;;;;;5074118;28;20056;-76
2022/06/11 07:56:04;;;;;;;10.60;4.38;;;;;;;;;;5090515;28;20036;-76
2022/06/11 07:58:31;;;;;;;11.82;5.50;;;;;;;;;;5075112;28;20049;-76
2022/06/11 08:00:57;;;;;;;11.05;4.35;;;;;;;;;;5072630;28;20559;-76
2022/06/11 08:03:23;;;;;;;12.23;3.88;;;;;;;;;;5096319;28;20087;-76
2022/06/11 08:05:50;;;;;;;13.90;3.80;;;;;;;;;;5088170;28;20044;-76
2022/06/11 08:08:18;;;;;;;10.13;4.13;;;;;;;;;;5065703;28;20453;-77
2022/06/11 08:10:44;;;;;;;11.98;3.78;;;;;;;;;;5067650;28;20044;-76
2022/06/11 08:13:11;;;;;;;10.75;4.05;;;;;;;;;;5091002;28;20059;-76
2022/06/11 08:15:38;;;;;;;12.65;4.32;;;;;;;;;;5061317;28;20055;-76
2022/06/11 08:18:04;;;;;;;12.65;4.15;;;;;;;;;;5080183;28;20131;-76
2022/06/11 08:20:31;;;;;;;10.55;3.65;;;;;;;;;;5083277;28;20052;-77
2022/06/11 08:22:58;;;;;;;11.38;4.30;;;;;;;;;;5094096;28;20487;-76
2022/06/11 08:25:24;;;;;;;13.38;4.07;;;;;;;;;;5072851;28;20175;-76
2022/06/11 08:27:54;;;;;;;12.13;4.30;;;;;;;;;;5091302;28;20188;-76
2022/06/11 08:30:21;;;;;;;14.75;4.57;;;;;;;;;;5076830;28;20057;-76
2022/06/11 08:32:47;;;;;;;12.55;4.55;;;;;;;;;;5090065;28;20044;-76
2022/06/11 08:35:14;;;;;;;15.38;4.70;;;;;;;;;;5082091;28;20367;-77
2022/06/11 08:37:40;;;;;;;11.98;4.68;;;;;;;;;;5084758;28;20044;-77
2022/06/11 08:40:07;;;;;;;13.82;4.65;;;;;;;;;;5080909;28;20043;-76
2022/06/11 08:42:41;;;;;;;14.30;4.18;;;;;;;;;;5072186;28;20055;-77
2022/06/11 08:45:11;;;;;;;13.75;4.47;;;;;;;;;;5069523;28;20052;-77
2022/06/11 08:47:41;;;;;;;13.77;4.05;;;;;;;;;;5087069;28;20091;-76
2022/06/11 08:50:11;;;;;;;14.20;4.40;;;;;;;;;;5095892;28;20086;-77
2022/06/11 08:52:37;;;;;;;14.88;4.63;;;;;;;;;;5084623;28;20085;-77
2022/06/11 08:55:03;;;;;;;12.85;4.53;;;;;;;;;;5071000;28;20048;-77
2022/06/11 08:57:43;;;;;;;11.80;3.83;;;;;;;;;;5073816;28;20036;-79
2022/06/11 09:00:20;;;;;;;13.00;4.07;;;;;;;;;;5084678;28;20119;-78
2022/06/11 09:02:58;;;;;;;13.43;4.10;;;;;;;;;;5082576;28;20059;-77
2022/06/11 09:05:36;;;;;;;13.57;4.43;;;;;;;;;;5083840;28;20048;-78
2022/06/11 09:08:14;;;;;;;14.98;5.72;;;;;;;;;;5086715;28;20036;-78
2022/06/11 09:10:43;;;;;;;15.27;4.60;;;;;;;;;;5078257;28;20054;-78
2022/06/11 09:13:28;;;;;;;13.68;4.53;;;;;;;;;;5084818;28;20043;-78
2022/06/11 09:16:07;;;;;;;17.17;4.57;;;;;;;;;;5085440;28;20086;-78
2022/06/11 09:18:36;;;;;;;16.05;5.50;;;;;;;;;;5076633;28;20041;-78
2022/06/11 09:21:08;;;;;;;14.32;4.50;;;;;;;;;;5087965;28;20372;-78
2022/06/11 09:23:38;;;;;;;16.38;4.43;;;;;;;;;;5073442;28;20051;-78
2022/06/11 09:26:25;;;;;;;14.55;4.30;;;;;;;;;;5064221;28;20053;-78
2022/06/11 09:28:58;;;;;;;12.95;4.72;;;;;;;;;;5076818;28;20043;-77
2022/06/11 09:31:35;;;;;;;12.40;4.13;;;;;;;;;;5075033;28;20105;-77
2022/06/11 09:34:05;;;;;;;14.05;3.95;;;;;;;;;;5092060;28;20119;-77
2022/06/11 09:36:35;;;;;;;15.88;4.72;;;;;;;;;;5092030;28;20079;-78
2022/06/11 09:39:10;;;;;;;12.25;4.68;;;;;;;;;;5081621;28;20032;-77
2022/06/11 09:41:55;;;;;;;8.85;3.20;;;;;;;;;;5055262;28;20046;-77
2022/06/11 09:44:21;;;;;;;13.00;4.63;;;;;;;;;;5090517;28;20040;-78
2022/06/11 09:46:47;;;;;;;12.18;4.55;;;;;;;;;;5090298;28;20040;-77
2022/06/11 09:49:39;;;;;;;11.57;4.57;;;;;;;;;;5088170;28;20491;-77
2022/06/11 09:52:24;;;;;;;14.35;4.10;;;;;;;;;;5038949;28;20490;-77
2022/06/11 09:54:54;;;;;;;15.27;4.35;;;;;;;;;;5092915;28;20125;-77
2022/06/11 09:57:32;;;;;;;11.95;3.95;;;;;;;;;;5081669;28;20194;-77
2022/06/11 10:00:01;;;;;;;14.45;4.00;;;;;;;;;;5091037;28;20375;-77
2022/06/11 10:05:20;;;;;;;10.77;4.15;;;;;;;;;;5078342;28;20391;-78
2022/06/11 10:07:48;;;;;;;10.77;4.07;;;;;;;;;;5083403;28;20040;-78
2022/06/11 10:10:21;;;;;;;13.68;4.15;;;;;;;;;;5071214;28;20059;-78
2022/06/11 10:12:52;;;;;;;14.43;4.40;;;;;;;;;;5058436;28;20044;-78
2022/06/11 10:15:36;;;;;;;16.15;5.15;;;;;;;;;;5078878;28;20059;-78
2022/06/11 10:18:20;;;;;;;10.60;4.13;;;;;;;;;;5053592;28;20053;-77
2022/06/11 10:21:05;;;;;;;13.02;4.80;;;;;;;;;;5066324;28;20067;-78
2022/06/11 10:23:47;;;;;;;14.63;3.80;;;;;;;;;;5073669;28;20056;-78
2022/06/11 10:26:17;;;;;;;13.00;3.87;;;;;;;;;;5071534;28;20124;-78
2022/06/11 10:28:51;;;;;;;14.05;4.40;;;;;;;;;;5070520;28;20048;-78
2022/06/11 10:31:20;;;;;;;14.95;4.30;;;;;;;;;;5082742;28;20048;-78
2022/06/11 10:33:54;;;;;;;13.20;4.43;;;;;;;;;;5090232;28;20048;-78
2022/06/11 10:36:39;;;;;;;12.45;4.80;;;;;;;;;;5089112;28;20036;-77
2022/06/11 10:39:20;;;;;;;15.02;5.05;;;;;;;;;;5070208;28;20051;-78
2022/06/11 10:41:52;;;;;;;13.82;4.95;;;;;;;;;;5082313;28;20040;-78
2022/06/11 10:44:38;;;;;;;18.23;4.50;;;;;;;;;;5083212;28;20391;-78
2022/06/11 10:47:25;;;;;;;14.50;4.97;;;;;;;;;;5056819;28;20045;-78
2022/06/11 10:50:09;;;;;;;11.65;4.53;;;;;;;;;;5082491;28;20453;-78
2022/06/11 10:52:44;;;;;;;14.88;4.45;;;;;;;;;;5065362;28;20049;-78
2022/06/11 10:55:25;;;;;;;15.30;4.55;;;;;;;;;;5070523;28;20049;-78
2022/06/11 10:57:52;;;;;;;13.63;4.60;;;;;;;;;;5090306;28;20036;-78
2022/06/11 11:00:20;;;;;;;13.50;4.18;;;;;;;;;;5069434;28;20178;-78
2022/06/11 11:02:58;;;;;;;14.05;4.35;;;;;;;;;;5060126;28;20037;-77
2022/06/11 11:05:24;;;;;;;16.40;4.82;;;;;;;;;;5081782;28;20041;-77
2022/06/11 11:07:57;;;;;;;13.93;4.78;;;;;;;;;;5068694;28;20044;-78
2022/06/11 11:10:35;;;;;;;15.70;4.50;;;;;;;;;;5093721;28;20044;-78
2022/06/11 11:13:02;;;;;;;13.82;4.32;;;;;;;;;;5094448;28;20089;-78
2022/06/11 11:15:36;;;;;;;9.55;3.90;;;;;;;;;;5083253;28;20406;-78
2022/06/11 11:18:09;;;;;;;11.30;4.13;;;;;;;;;;5060437;28;20044;-77
2022/06/11 11:20:39;;;;;;;14.85;4.93;;;;;;;;;;5093029;28;20047;-78
2022/06/11 11:23:08;;;;;;;11.60;4.53;;;;;;;;;;5082593;28;20436;-77
2022/06/11 11:25:49;;;;;;;11.52;4.20;;;;;;;;;;5093086;28;20036;-78
2022/06/11 11:28:21;;;;;;;13.13;4.00;;;;;;;;;;5082558;28;20153;-77
2022/06/11 11:30:55;;;;;;;11.20;3.90;;;;;;;;;;5094237;28;20515;-77
2022/06/11 11:33:25;;;;;;;13.63;4.28;;;;;;;;;;5092067;28;20507;-77
2022/06/11 11:36:00;;;;;;;13.05;4.57;;;;;;;;;;5089285;28;20037;-77
2022/06/11 11:38:27;;;;;;;13.23;4.35;;;;;;;;;;5074916;28;20055;-77
2022/06/11 11:41:05;;;;;;;11.93;4.35;;;;;;;;;;5090603;28;20056;-77
2022/06/11 11:43:40;;;;;;;13.88;4.57;;;;;;;;;;5086315;28;20403;-77
2022/06/11 11:46:10;;;;;;;15.05;4.25;;;;;;;;;;5074414;28;20044;-77
2022/06/11 11:48:48;;;;;;;13.52;4.07;;;;;;;;;;5064388;28;20048;-77
2022/06/11 11:51:18;;;;;;;13.52;4.28;;;;;;;;;;5069784;28;20059;-77
2022/06/11 11:53:48;;;;;;;10.52;4.18;;;;;;;;;;5088529;28;20040;-77
2022/06/11 11:56:41;;;;;;;12.23;3.60;;;;;;;;;;5056701;28;20082;-76
2022/06/11 11:59:14;;;;;;;17.20;4.57;;;;;;;;;;5070075;28;20526;-77
2022/06/11 12:01:40;;;;;;;12.10;4.15;;;;;;;;;;5089628;28;20048;-77
2022/06/11 12:04:11;;;;;;;12.13;4.32;;;;;;;;;;5094014;28;20051;-77
2022/06/11 12:06:42;;;;;;;15.70;4.10;;;;;;;;;;5082290;28;20047;-77
2022/06/11 12:09:24;;;;;;;12.40;4.03;;;;;;;;;;5071233;28;20483;-77
2022/06/11 12:12:02;;;;;;;14.70;4.47;;;;;;;;;;5058957;28;20046;-77
2022/06/11 12:14:33;;;;;;;13.77;4.22;;;;;;;;;;5091087;28;20105;-77
2022/06/11 12:17:05;;;;;;;12.10;4.03;;;;;;;;;;5060541;28;20048;-77
2022/06/11 12:19:33;;;;;;;10.63;3.42;;;;;;;;;;5089887;28;20129;-77
2022/06/11 12:22:04;;;;;;;18.40;4.53;;;;;;;;;;5072682;28;20051;-77
2022/06/11 12:24:42;;;;;;;15.07;3.97;;;;;;;;;;5084356;28;20047;-77
2022/06/11 12:27:18;;;;;;;13.55;4.25;;;;;;;;;;5069547;28;20043;-77
2022/06/11 12:29:48;;;;;;;12.65;4.47;;;;;;;;;;5064863;28;20048;-77
2022/06/11 12:32:19;;;;;;;12.25;4.00;;;;;;;;;;5073958;28;20049;-77
2022/06/11 12:34:45;;;;;;;13.27;4.13;;;;;;;;;;5088136;28;20044;-78
2022/06/11 12:37:11;;;;;;;9.40;3.30;;;;;;;;;;5079856;28;20105;-77
2022/06/11 12:39:37;;;;;;;12.45;3.55;;;;;;;;;;5075312;28;20055;-77
2022/06/11 12:42:09;;;;;;;10.60;3.42;;;;;;;;;;5093153;28;20558;-77
2022/06/11 12:44:38;;;;;;;9.47;3.63;;;;;;;;;;5076491;28;20399;-77
2022/06/11 12:47:24;;;;;;;9.90;3.67;;;;;;;;;;5065350;28;20044;-77
2022/06/11 12:50:09;;;;;;;15.23;3.75;;;;;;;;;;5092743;28;20105;-77
2022/06/11 12:52:38;;;;;;;9.50;2.85;;;;;;;;;;5070201;28;20040;-77
2022/06/11 12:55:04;;;;;;;11.15;3.90;;;;;;;;;;5084374;28;20055;-78
2022/06/11 12:57:36;;;;;;;8.45;3.30;;;;;;;;;;5075468;28;20090;-77
2022/06/11 13:00:11;;;;;;;11.27;3.65;;;;;;;;;;5087555;28;20474;-77
2022/06/11 13:02:50;;;;;;;7.43;2.92;;;;;;;;;;5090323;28;20038;-77
2022/06/11 13:05:35;;;;;;;9.30;3.70;;;;;;;;;;5092403;28;20043;-77
2022/06/11 13:08:21;;;;;;;9.45;3.20;;;;;;;;;;5072474;28;20045;-77
2022/06/11 13:10:47;;;;;;;10.18;3.33;;;;;;;;;;5077224;28;20051;-78
2022/06/11 13:13:32;;;;;;;9.68;3.30;;;;;;;;;;5092763;28;20052;-77
2022/06/11 13:15:58;;;;;;;11.50;3.30;;;;;;;;;;5086527;28;20177;-77
2022/06/11 13:18:38;;;;;;;9.23;3.75;;;;;;;;;;5073788;28;20380;-77
2022/06/11 13:21:26;;;;;;;11.20;3.63;;;;;;;;;;5079850;28;20044;-77
2022/06/11 13:23:58;;;;;;;11.85;3.67;;;;;;;;;;5090342;28;20097;-77
2022/06/11 13:26:24;;;;;;;13.63;3.90;;;;;;;;;;5090116;28;20044;-77
2022/06/11 13:28:50;;;;;;;14.23;4.25;;;;;;;;;;5081873;28;20089;-77
2022/06/11 13:31:24;;;;;;;11.63;3.78;;;;;;;;;;5069755;28;20407;-78
2022/06/11 13:33:59;;;;;;;12.50;4.30;;;;;;;;;;5081756;28;20048;-77
2022/06/11 13:36:40;;;;;;;12.00;3.85;;;;;;;;;;5073280;28;20496;-78
2022/06/11 13:39:06;;;;;;;13.23;3.95;;;;;;;;;;5070093;28;20455;-77
2022/06/11 13:41:48;;;;;;;12.13;4.30;;;;;;;;;;5084229;28;20040;-77
2022/06/11 13:44:29;;;;;;;17.20;4.97;;;;;;;;;;5090800;28;20075;-78
2022/06/11 13:47:14;;;;;;;14.52;5.43;;;;;;;;;;5090758;28;20176;-77
2022/06/11 13:49:50;;;;;;;16.42;5.20;;;;;;;;;;5086823;28;20040;-78
2022/06/11 13:55:29;;;;;;;14.18;4.60;;;;;;;;;;5056308;28;20051;-77
2022/06/11 13:58:14;;;;;;;13.52;4.93;;;;;;;;;;5064606;28;20052;-77
2022/06/11 14:00:55;;;;;;;12.07;4.32;;;;;;;;;;5064518;28;20051;-77
2022/06/11 14:03:40;;;;;;;12.35;4.43;;;;;;;;;;5080402;28;20056;-77
2022/06/11 14:06:08;;;;;;;16.13;5.07;;;;;;;;;;5090486;28;20086;-78
2022/06/11 14:08:42;;;;;;;13.07;4.70;;;;;;;;;;5089028;28;20081;-77
2022/06/11 14:11:35;;;;;;;13.57;4.63;;;;;;;;;;5072421;28;20127;-77
2022/06/11 14:14:06;;;;;;;17.15;4.47;;;;;;;;;;5082015;28;20147;-78
2022/06/11 14:16:32;;;;;;;15.38;4.57;;;;;;;;;;5088543;28;20044;-78
2022/06/11 14:19:13;;;;;;;16.95;5.10;;;;;;;;;;5069221;28;20131;-78
2022/06/11 14:21:39;;;;;;;10.98;4.32;;;;;;;;;;5082697;28;20036;-77
2022/06/11 14:24:06;;;;;;;12.45;4.30;;;;;;;;;;5069986;28;20043;-78
2022/06/11 14:26:55;;;;;;;13.60;4.50;;;;;;;;;;5067114;28;20048;-78
2022/06/11 14:29:25;;;;;;;13.77;4.28;;;;;;;;;;5073654;28;20056;-78
2022/06/11 14:32:11;;;;;;;13.50;4.28;;;;;;;;;;5066866;28;20052;-78
2022/06/11 14:34:40;;;;;;;14.52;4.90;;;;;;;;;;5067168;28;20048;-77
2022/06/11 14:37:12;;;;;;;15.45;4.78;;;;;;;;;;5094065;28;20434;-78
2022/06/11 14:39:40;;;;;;;11.77;4.33;;;;;;;;;;5068245;28;20044;-77
2022/06/11 14:42:11;;;;;;;13.85;4.22;;;;;;;;;;5061633;28;20348;-78
2022/06/11 14:44:38;;;;;;;12.20;3.85;;;;;;;;;;5061776;28;20052;-77
2022/06/11 14:47:25;;;;;;;13.13;4.28;;;;;;;;;;5067183;28;20048;-78
2022/06/11 14:49:52;;;;;;;11.50;3.80;;;;;;;;;;5073700;28;20487;-78
2022/06/11 14:52:21;;;;;;;13.85;4.40;;;;;;;;;;5071171;28;20522;-78
2022/06/11 14:55:02;;;;;;;12.48;4.25;;;;;;;;;;5068476;28;20550;-78
2022/06/11 14:57:32;;;;;;;7.90;3.60;;;;;;;;;;5062174;28;20052;-78
2022/06/11 15:00:04;;;;;;;11.48;4.18;;;;;;;;;;5053391;28;20072;-78